Terminal Aerodrome Forecast
Issued by NWS

Home | Current Version | Previous Version | Text Only | Print | Product List | Glossary On
Versions: 1 2 3 4 5 6 7 8 9 10 11 12 13 14 15 16 17 18 19
000
FTUS43 KGRR 072344
TAFAZO
TAF
KAZO 072344Z 0800/0824 25011KT P6SM OVC025
     FM080400 26014G21KT P6SM OVC020
     FM081200 26015G22KT 2SM -SHSN OVC020
     FM081400 27015G22KT 1SM -SHSN BR OVC020
     FM081800 27015G21KT 4SM -SHSN OVC025=

USA.gov is the U.S. government's official web portal to all federal, state and local government web resources and services.